Portada
METAR-TAF:

METAR-TAF

Aeroports :

Naval Auxiliary Landing Field Fentress

Chesapeake, Virgínia, Estats Units d'Amèrica

latitud: 36-42-03N, longitud: 076-07-42W, altitud: 3 m

Observació

L'informe es va fer fa 39 minuts, a les 23:56 UTC
Vent 4 kt amb direcció variable
Temperatura 31°C
Humitat 38%
Pressió 1011 hPa
Visibilitat: 16.1 km
Cel clar

METAR: KNFE 202356Z AUTO VRB04KT 10SM CLR 31/15 A2985 RMK AO2 SLP110 T03060150 10344 20306 55002

Hora: 20:35 (00:35 UTC)


TAF: manca

Observacions i pronòstics meteorològics de més de 4000 aeroports (METAR i TAF).

Les estacions disponibles són els punts grocs i vermells al mapa.

Posi el ratolí al punt desitjat per veure el nom de l'estació.

Feu clic per veure les observacions i els pronòstics meteorològics.

Per canviar el mapa: feu clic els botons verds amb una creu de color negre per apropar; al botó verd amb un guió per allunyar la imatge; o en les fletxes verdes per a mapes adjacents.


METAR-TAF: